Date,TemperatureHighF,TemperatureAvgF,TemperatureLowF,DewpointHighF,DewpointAvgF,DewpointLowF,HumidityHigh,HumidityAvg,HumidityLow,PressureMaxIn,PressureMinIn,WindSpeedMaxMPH,WindSpeedAvgMPH,GustSpeedMaxMPH,PrecipitationSumIn
2013-7-1,88.3,78.4,67.6,66.2,63.4,59.8,80,61,47,29.58,29.50,21,6,21,0.00
2013-7-2,92.5,78.5,67.6,65.5,61.9,57.1,79,59,34,29.62,29.55,21,8,21,0.00
2013-7-3,84.9,72.3,61.9,58.5,53.2,41.1,76,54,24,29.68,29.56,24,11,25,0.05
2013-7-4,75.0,65.5,57.0,54.0,50.9,46.2,78,60,47,29.65,29.55,24,13,24,0.14
2013-7-5,72.7,64.0,57.4,53.5,50.2,47.0,72,61,51,29.59,29.49,27,12,27,0.12
2013-7-6,75.4,65.6,55.2,58.0,54.0,50.2,85,67,52,29.54,29.40,26,9,26,0.00
2013-7-7,78.1,67.2,58.6,60.0,56.2,54.3,86,69,52,29.50,29.41,26,10,27,0.07
2013-7-8,81.5,68.2,57.0,59.0,55.1,52.1,89,65,41,29.63,29.50,24,11,24,0.21
2013-7-9,88.3,73.8,57.6,62.9,58.1,53.1,85,60,40,29.68,29.53,19,5,19,0.00
2013-7-10,83.7,71.4,60.6,59.1,54.3,50.0,76,57,35,29.61,29.47,23,8,23,0.00
2013-7-11,76.3,64.5,53.8,51.1,48.1,44.0,76,57,39,29.61,29.51,24,11,24,0.05
2013-7-12,75.4,63.7,53.8,52.3,48.7,46.3,80,60,42,29.66,29.54,24,10,24,0.01
2013-7-13,84.4,67.9,52.0,53.0,45.7,22.4,83,52,12,29.75,29.60,14,4,14,0.00
2013-7-14,89.1,81.7,69.3,57.2,50.1,41.6,53,34,25,29.63,29.51,16,7,16,0.00
2013-7-15,92.3,74.4,56.7,51.7,47.3,40.8,70,42,18,29.59,29.41,18,5,18,0.00
2013-7-16,84.7,74.9,63.0,58.5,49.2,40.9,56,41,24,29.52,29.40,13,3,13,0.00
2013-7-17,81.1,70.1,61.2,57.1,54.3,45.9,77,59,31,29.72,29.51,22,9,22,0.01
2013-7-18,83.8,69.8,57.0,57.5,55.3,52.9,87,62,38,29.75,29.60,23,9,23,0.00
2013-7-19,81.7,70.4,58.5,61.8,57.5,53.7,85,65,46,29.67,29.52,24,8,24,0.01
2013-7-20,82.4,68.3,58.6,60.9,57.4,55.0,90,69,44,29.59,29.45,28,12,28,0.18
2013-7-21,83.8,69.3,57.2,59.1,56.1,53.7,91,65,41,29.50,29.42,30,12,30,0.04
2013-7-22,86.7,70.6,59.0,58.1,55.9,49.2,88,63,32,29.56,29.47,26,12,26,0.01
2013-7-23,89.6,74.1,59.9,61.8,57.4,54.1,84,59,33,29.61,29.47,21,5,21,0.00
2013-7-24,91.4,76.9,63.3,60.6,57.4,46.8,78,54,23,29.59,29.51,25,8,25,0.00
2013-7-25,89.6,76.2,62.8,59.0,56.7,53.2,75,53,32,29.62,29.56,24,10,24,0.00
2013-7-26,90.0,74.6,60.8,58.3,55.4,50.7,74,53,32,29.68,29.59,27,8,27,0.00
2013-7-27,78.8,68.2,56.7,52.1,49.3,44.2,77,53,34,29.71,29.54,28,13,28,0.12
2013-7-28,74.8,64.5,55.8,53.6,51.3,48.9,83,64,45,29.58,29.49,26,13,26,0.08
2013-7-29,81.3,66.2,56.8,55.4,52.2,43.4,83,63,27,29.57,29.47,26,10,26,0.02
2013-7-30,85.5,70.6,59.5,57.0,55.2,49.3,86,61,31,29.68,29.57,21,10,21,0.00
2013-7-31,78.1,68.6,62.2,61.5,57.1,53.6,80,67,54,29.67,29.54,21,6,21,0.00